This is the latest recevied weather packets stored in our database for station/object N4XWC. If no packets are shown the sender has not sent any weather packets the latest 10 day(s).
| Time | Temp. | Humidity | Pressure | Rain* | Wind** | Luminosity | Snow |
|---|---|---|---|---|---|---|---|
| 1777670142 | 17.22° C | 64% | 1012.6 hPa | 0 mm | - | - | - |
| 1777669934 | 17.22° C | 65% | 1013 hPa | 0 mm | - | - | - |
| 1777669840 | 17.22° C | 64% | 1013 hPa | 0 mm | - | - | - |
| 1777669540 | 17.22° C | 64% | 1013 hPa | 0 mm | - | - | - |
| 1777669335 | 17.22° C | 62% | 1013 hPa | 0 mm | - | - | - |
| 1777669241 | 17.22° C | 61% | 1013 hPa | 0 mm | - | - | - |
| 1777668940 | 17.22° C | 60% | 1013.2 hPa | 0 mm | - | - | - |
| 1777668734 | 17.22° C | 61% | 1013.2 hPa | 0 mm | - | - | - |
| 1777668642 | 17.22° C | 61% | 1013.2 hPa | 0 mm | - | - | - |
| 1777668341 | 17.22° C | 60% | 1013.2 hPa | 0 mm | - | - | - |
| 1777668141 | 17.22° C | 60% | 1013.6 hPa | 0 mm | - | - | - |
| 1777668040 | 17.78° C | 59% | 1013.6 hPa | 0 mm | - | - | - |
| 1777667742 | 17.78° C | 58% | 1013.6 hPa | 0 mm | - | - | - |
| 1777667534 | 17.78° C | 59% | 1013.6 hPa | 0 mm | - | - | - |
| 1777667442 | 17.78° C | 57% | 1013.6 hPa | 0 mm | - | - | - |
| 1777667169 | 11.11° C | 88% | 1014.8 hPa | 0 mm | - | - | - |
| 1777667169 | 11.11° C | 89% | 1014.7 hPa | 0 mm | - | - | - |
| 1777667142 | 17.78° C | 58% | 1013.9 hPa | 0 mm | - | - | - |
| 1777666934 | 17.78° C | 57% | 1013.9 hPa | 0 mm | - | - | - |
| 1777666841 | 17.78° C | 58% | 1013.9 hPa | 0 mm | - | - | - |
| 1777666540 | 17.78° C | 57% | 1013.9 hPa | 0 mm | - | - | - |
| 1777666335 | 17.78° C | 56% | 1014.3 hPa | 0 mm | - | - | - |
| 1777666241 | 17.78° C | 55% | 1014.3 hPa | 0 mm | - | - | - |
| 1777665940 | 17.78° C | 56% | 1014.3 hPa | 0 mm | - | - | - |
| 1777665736 | 17.78° C | 55% | 1014.3 hPa | 0 mm | - | - | - |
* Rain latest hour (hover to see other rain measurements)
** Current wind speed in m/s (hover to see current wind gust speed)